createdAt,value
2022-09-09T00:02:20.812Z,91.20
2022-09-09T00:05:02.695Z,91.40
2022-09-09T00:07:44.017Z,91.40
2022-09-09T00:10:29.716Z,92.30
2022-09-09T00:13:05.538Z,92.40
2022-09-09T00:15:37.512Z,92.70
2022-09-09T00:18:18.506Z,92.70
2022-09-09T00:20:52.848Z,92.30
2022-09-09T00:23:29.313Z,92.00
2022-09-09T00:26:09.307Z,91.70
2022-09-09T00:28:42.688Z,91.60
2022-09-09T00:31:26.306Z,91.30
2022-09-09T00:33:54.602Z,91.40
2022-09-09T00:36:26.229Z,91.50
2022-09-09T00:38:57.939Z,91.50
2022-09-09T00:41:33.378Z,91.40
2022-09-09T00:44:07.908Z,91.50
2022-09-09T00:46:46.357Z,91.10
2022-09-09T00:49:33.787Z,90.80
2022-09-09T00:52:09.224Z,90.90
2022-09-09T00:54:50.769Z,91.40
2022-09-09T00:57:17.447Z,91.20
2022-09-09T00:59:52.173Z,91.80
2022-09-09T01:02:30.702Z,91.90
2022-09-09T01:05:14.784Z,92.10
2022-09-09T01:07:48.224Z,91.80
2022-09-09T01:10:42.586Z,91.70
2022-09-09T01:13:17.893Z,91.50
2022-09-09T01:15:45.502Z,91.90
2022-09-09T01:18:17.589Z,91.80
2022-09-09T01:21:19.363Z,91.60
2022-09-09T01:24:27.940Z,91.80
2022-09-09T01:26:59.999Z,91.40
2022-09-09T01:29:27.143Z,91.90
2022-09-09T01:31:58.055Z,91.90
2022-09-09T01:34:28.298Z,91.70
2022-09-09T01:37:01.126Z,91.80
2022-09-09T01:39:28.740Z,91.90
2022-09-09T01:41:57.103Z,91.90
2022-09-09T01:44:25.125Z,92.00
2022-09-09T01:46:51.983Z,92.00
2022-09-09T01:49:19.465Z,92.00
2022-09-09T01:51:50.658Z,91.80
2022-09-09T01:54:18.054Z,92.30
2022-09-09T01:56:55.490Z,92.40
2022-09-09T02:00:02.150Z,92.80
2022-09-09T02:02:47.788Z,92.80
2022-09-09T02:05:23.029Z,93.00
2022-09-09T02:07:53.311Z,92.90
2022-09-09T02:10:29.845Z,92.40
2022-09-09T02:13:20.674Z,92.40
2022-09-09T02:15:57.087Z,92.70
2022-09-09T02:18:51.228Z,92.80
2022-09-09T02:21:18.978Z,92.70
2022-09-09T02:23:48.915Z,92.40
2022-09-09T02:26:22.398Z,92.30
2022-09-09T02:28:50.433Z,91.50
2022-09-09T02:31:23.026Z,91.90
2022-09-09T02:33:57.332Z,91.40
2022-09-09T02:36:27.387Z,91.30
2022-09-09T02:38:55.418Z,91.00
2022-09-09T02:41:33.682Z,91.00
2022-09-09T02:44:01.419Z,91.00
2022-09-09T02:46:43.309Z,91.10
2022-09-09T02:49:12.035Z,90.90
2022-09-09T02:52:02.094Z,91.60
2022-09-09T02:54:33.012Z,91.50
2022-09-09T02:57:21.775Z,91.90
2022-09-09T02:59:49.493Z,92.50
2022-09-09T03:02:16.639Z,92.60
2022-09-09T03:04:45.544Z,93.00
2022-09-09T03:07:13.092Z,92.70
2022-09-09T03:09:39.914Z,92.60
2022-09-09T03:12:06.773Z,92.50
2022-09-09T03:14:33.474Z,92.20
2022-09-09T03:17:01.922Z,92.40
2022-09-09T03:19:29.143Z,91.90
2022-09-09T03:21:55.841Z,91.60
2022-09-09T03:24:23.711Z,92.10
2022-09-09T03:26:51.487Z,92.10
2022-09-09T03:29:19.461Z,91.80
2022-09-09T03:31:46.396Z,92.10
2022-09-09T03:34:14.596Z,91.70
2022-09-09T03:36:42.089Z,91.90
2022-09-09T03:39:08.884Z,92.40
2022-09-09T03:41:35.630Z,92.40
2022-09-09T03:44:02.462Z,92.70
2022-09-09T03:46:29.363Z,93.10
2022-09-09T03:48:56.147Z,93.50
2022-09-09T03:51:23.025Z,93.40
2022-09-09T03:53:50.026Z,93.30
2022-09-09T03:56:16.752Z,93.20
2022-09-09T03:58:43.546Z,93.20
2022-09-09T04:01:15.824Z,92.60
2022-09-09T04:03:43.319Z,92.50
2022-09-09T04:06:14.308Z,92.70
2022-09-09T04:08:42.677Z,92.70
2022-09-09T04:11:09.591Z,92.60
2022-09-09T04:13:41.195Z,92.10
2022-09-09T04:16:09.268Z,92.10
2022-09-09T04:18:36.109Z,92.00
2022-09-09T04:21:04.577Z,92.10
2022-09-09T04:23:31.660Z,92.60
2022-09-09T04:25:59.905Z,92.20
2022-09-09T04:28:29.269Z,92.10
2022-09-09T04:30:57.805Z,92.40
2022-09-09T04:33:27.575Z,92.10
2022-09-09T04:35:55.955Z,92.40
2022-09-09T04:38:23.953Z,92.70
2022-09-09T04:40:52.765Z,92.80
2022-09-09T04:43:19.943Z,92.90
2022-09-09T04:45:49.487Z,93.10
2022-09-09T04:48:16.418Z,93.10
2022-09-09T04:50:43.081Z,92.70
2022-09-09T04:53:10.108Z,92.50
2022-09-09T04:55:36.902Z,92.60
2022-09-09T04:58:07.967Z,92.50
2022-09-09T05:00:36.796Z,93.00
2022-09-09T05:03:09.794Z,93.00
2022-09-09T05:05:36.977Z,93.10
2022-09-09T05:08:07.955Z,93.10
2022-09-09T05:10:35.548Z,93.00
2022-09-09T05:13:02.260Z,93.30
2022-09-09T05:15:29.594Z,93.40
2022-09-09T05:18:01.508Z,93.30
2022-09-09T05:20:29.248Z,93.20
2022-09-09T05:22:57.322Z,92.60
2022-09-09T05:25:26.934Z,92.60
2022-09-09T05:27:54.741Z,92.70
2022-09-09T05:30:23.146Z,92.70
2022-09-09T05:32:49.964Z,92.30
2022-09-09T05:35:17.281Z,92.10
2022-09-09T05:37:43.975Z,92.50
2022-09-09T05:40:11.863Z,92.60
2022-09-09T05:42:39.930Z,92.50
2022-09-09T05:45:08.701Z,91.80
2022-09-09T05:47:36.494Z,91.80
2022-09-09T05:50:03.395Z,92.10
2022-09-09T05:52:31.050Z,92.10
2022-09-09T05:54:58.021Z,92.00
2022-09-09T05:57:24.750Z,91.90
2022-09-09T05:59:51.486Z,92.00
2022-09-09T06:02:18.321Z,92.10
2022-09-09T06:04:45.106Z,92.00
2022-09-09T06:07:11.830Z,92.20
2022-09-09T06:09:38.506Z,92.10
2022-09-09T06:12:05.509Z,92.00
2022-09-09T06:14:32.209Z,92.40
2022-09-09T06:16:58.904Z,92.80
2022-09-09T06:19:27.363Z,92.60
2022-09-09T06:21:54.084Z,92.20
2022-09-09T06:24:21.009Z,92.60
2022-09-09T06:26:47.774Z,92.10
2022-09-09T06:29:14.472Z,92.60
2022-09-09T06:31:42.210Z,92.20
2022-09-09T06:34:10.245Z,92.00
2022-09-09T06:36:39.449Z,91.60
2022-09-09T06:39:12.104Z,91.20
2022-09-09T06:41:40.690Z,91.20
2022-09-09T06:44:07.583Z,91.90
2022-09-09T06:46:34.662Z,91.30
2022-09-09T06:49:01.730Z,91.60
2022-09-09T06:51:32.010Z,91.40
2022-09-09T06:54:03.115Z,90.40
2022-09-09T06:56:34.005Z,90.60
2022-09-09T06:59:04.911Z,90.90
2022-09-09T07:01:37.949Z,90.80
2022-09-09T07:04:08.347Z,91.10
2022-09-09T07:06:37.458Z,90.40
2022-09-09T07:09:07.202Z,90.50
2022-09-09T07:11:38.526Z,90.00
2022-09-09T07:14:05.273Z,90.60
2022-09-09T07:16:35.018Z,90.70
2022-09-09T07:19:03.414Z,90.60
2022-09-09T07:21:31.671Z,90.80
2022-09-09T07:23:59.810Z,90.40
2022-09-09T07:26:30.163Z,89.80
2022-09-09T07:28:58.053Z,89.70
2022-09-09T07:31:27.950Z,87.50
2022-09-09T07:33:55.013Z,84.40
2022-09-09T07:36:24.990Z,84.20
2022-09-09T07:38:54.669Z,84.60
2022-09-09T07:41:44.689Z,83.80
2022-09-09T07:44:14.158Z,83.60
2022-09-09T07:46:42.260Z,83.30
2022-09-09T07:49:09.942Z,84.40
2022-09-09T07:51:42.793Z,83.30
2022-09-09T07:54:12.157Z,81.50
2022-09-09T07:56:40.485Z,81.70
2022-09-09T07:59:08.007Z,82.90
2022-09-09T08:01:40.684Z,82.30
2022-09-09T08:04:10.743Z,82.50
2022-09-09T08:06:40.273Z,82.60
2022-09-09T08:09:08.031Z,82.50
2022-09-09T08:11:39.254Z,81.30
2022-09-09T08:14:09.102Z,82.90
2022-09-09T08:16:40.199Z,82.50
2022-09-09T08:19:08.257Z,82.80
2022-09-09T08:21:37.655Z,82.40
2022-09-09T08:24:06.123Z,83.70
2022-09-09T08:26:39.280Z,81.70
2022-09-09T08:29:08.094Z,83.00
2022-09-09T08:31:47.411Z,82.30
2022-09-09T08:34:14.618Z,83.20
2022-09-09T08:36:44.405Z,83.90
2022-09-09T08:39:13.317Z,84.60
2022-09-09T08:42:26.075Z,84.50
2022-09-09T08:45:20.221Z,85.70
2022-09-09T08:48:03.335Z,84.70
2022-09-09T08:50:36.261Z,84.30
2022-09-09T08:53:09.380Z,84.70
2022-09-09T08:55:58.335Z,84.50
2022-09-09T08:58:27.197Z,84.70
2022-09-09T09:01:15.148Z,85.30
2022-09-09T09:03:48.448Z,85.10
2022-09-09T09:06:25.327Z,85.00
2022-09-09T09:09:22.142Z,85.90
2022-09-09T09:11:54.313Z,84.60
2022-09-09T09:14:31.258Z,83.70
2022-09-09T09:17:07.404Z,85.30
2022-09-09T09:19:36.680Z,84.40
2022-09-09T09:22:08.379Z,84.70
2022-09-09T09:24:53.923Z,83.90
2022-09-09T09:27:34.229Z,83.50
2022-09-09T09:30:22.877Z,83.40
2022-09-09T09:32:59.434Z,85.10
2022-09-09T09:35:26.200Z,82.80
2022-09-09T09:40:59.331Z,83.30
2022-09-09T09:43:29.576Z,81.70
2022-09-09T09:46:16.622Z,80.50
2022-09-09T09:48:44.560Z,80.70
2022-09-09T09:51:18.169Z,79.30
2022-09-09T09:53:45.235Z,79.80
2022-09-09T09:56:16.878Z,79.90
2022-09-09T09:58:47.112Z,79.00
2022-09-09T10:01:32.342Z,78.30
2022-09-09T10:04:02.571Z,75.20
2022-09-09T10:06:39.108Z,76.60
2022-09-09T10:09:21.617Z,73.20
2022-09-09T10:12:20.195Z,74.90
2022-09-09T10:14:53.147Z,75.70
2022-09-09T10:17:28.239Z,72.10
2022-09-09T10:20:33.234Z,71.50
2022-09-09T10:23:26.213Z,71.90
2022-09-09T10:26:14.527Z,75.20
2022-09-09T10:29:03.348Z,72.60
2022-09-09T10:32:05.014Z,72.30
2022-09-09T10:34:46.573Z,69.90
2022-09-09T10:37:47.581Z,72.60
2022-09-09T10:40:30.934Z,71.50
2022-09-09T10:43:09.310Z,70.70
2022-09-09T10:46:01.242Z,72.10
2022-09-09T10:49:11.043Z,70.40
2022-09-09T10:51:43.618Z,70.50
2022-09-09T10:54:11.293Z,69.60
2022-09-09T10:56:40.710Z,72.10
2022-09-09T10:59:19.322Z,70.20
2022-09-09T11:01:50.336Z,70.20
2022-09-09T11:04:35.243Z,68.40
2022-09-09T11:07:11.901Z,69.30
2022-09-09T11:09:46.115Z,67.90
2022-09-09T11:12:20.466Z,68.50
2022-09-09T11:14:53.184Z,71.40
2022-09-09T11:17:28.346Z,69.10
2022-09-09T11:19:56.006Z,68.80
2022-09-09T11:22:28.614Z,65.50
2022-09-09T11:25:17.348Z,63.10
2022-09-09T11:27:53.095Z,61.50
2022-09-09T11:30:53.682Z,60.70
2022-09-09T11:33:33.154Z,63.20
2022-09-09T11:36:37.746Z,67.80
2022-09-09T11:39:25.373Z,62.80
2022-09-09T11:41:52.562Z,62.50
2022-09-09T11:44:31.133Z,63.60
2022-09-09T11:46:57.959Z,62.40
2022-09-09T11:49:42.823Z,61.60
2022-09-09T11:52:42.831Z,61.10
2022-09-09T11:55:13.146Z,61.40
2022-09-09T11:57:40.634Z,61.20
2022-09-09T12:00:08.182Z,64.50
2022-09-09T12:02:37.630Z,59.70
2022-09-09T12:05:11.008Z,60.00
2022-09-09T12:07:37.940Z,57.70
2022-09-09T12:10:20.154Z,58.00
2022-09-09T12:12:47.382Z,57.20
2022-09-09T12:15:17.196Z,55.90
2022-09-09T12:17:51.394Z,56.20
2022-09-09T12:20:20.719Z,57.40
2022-09-09T12:22:52.800Z,52.80
2022-09-09T12:25:41.299Z,53.90
2022-09-09T12:28:19.076Z,53.80
2022-09-09T12:31:06.068Z,52.10
2022-09-09T12:33:44.018Z,51.10
2022-09-09T12:36:33.566Z,51.40
2022-09-09T12:39:16.157Z,51.00
2022-09-09T12:41:51.322Z,50.30
2022-09-09T12:44:17.998Z,52.60
2022-09-09T12:46:47.750Z,50.00
2022-09-09T12:49:36.518Z,52.30
2022-09-09T12:52:06.740Z,47.60
2022-09-09T12:54:37.257Z,50.40
2022-09-09T12:57:05.979Z,51.50
2022-09-09T12:59:40.156Z,51.40
2022-09-09T13:02:27.152Z,48.60
2022-09-09T13:04:55.210Z,45.00
2022-09-09T13:07:22.697Z,46.60
2022-09-09T13:09:50.197Z,45.70
2022-09-09T13:12:23.553Z,44.90
2022-09-09T13:14:54.343Z,43.80
2022-09-09T13:17:26.725Z,46.60
2022-09-09T13:19:54.334Z,46.60
2022-09-09T13:22:22.606Z,49.50
2022-09-09T13:25:03.948Z,49.50
2022-09-09T13:27:35.118Z,54.90
2022-09-09T13:30:02.979Z,57.00
2022-09-09T13:32:32.011Z,56.80
2022-09-09T13:35:00.693Z,58.50
2022-09-09T13:37:38.790Z,58.30
2022-09-09T13:40:07.659Z,56.30
2022-09-09T13:42:41.025Z,56.40
2022-09-09T13:45:17.055Z,54.70
2022-09-09T13:47:44.136Z,56.10
2022-09-09T13:50:21.969Z,59.10
2022-09-09T13:52:51.079Z,60.20
2022-09-09T13:55:18.239Z,60.60
2022-09-09T13:58:02.129Z,61.20
2022-09-09T14:00:35.282Z,62.80
2022-09-09T14:03:04.874Z,61.20
2022-09-09T14:05:33.551Z,59.90
2022-09-09T14:08:01.588Z,59.20
2022-09-09T14:10:28.469Z,56.40
2022-09-09T14:12:55.230Z,54.20
2022-09-09T14:15:22.903Z,54.00
2022-09-09T14:17:49.662Z,53.90
2022-09-09T14:20:18.481Z,54.20
2022-09-09T14:22:45.202Z,53.80
2022-09-09T14:25:14.430Z,56.60
2022-09-09T14:27:41.747Z,56.50
2022-09-09T14:30:09.181Z,55.70
2022-09-09T14:32:36.055Z,56.70
2022-09-09T14:35:02.900Z,57.20
2022-09-09T14:37:32.015Z,56.90
2022-09-09T14:39:59.226Z,52.20
2022-09-09T14:42:26.868Z,52.70
2022-09-09T14:44:53.585Z,47.10
2022-09-09T14:47:20.336Z,47.60
2022-09-09T14:49:47.493Z,47.10
2022-09-09T14:52:14.365Z,45.20
2022-09-09T14:54:41.147Z,46.20
2022-09-09T14:57:07.837Z,45.70
2022-09-09T14:59:35.363Z,45.00
2022-09-09T15:02:05.116Z,44.80
2022-09-09T15:04:31.996Z,45.00
2022-09-09T15:06:59.642Z,43.50
2022-09-09T15:09:26.490Z,45.40
2022-09-09T15:11:53.310Z,46.90
2022-09-09T15:14:22.514Z,45.40
2022-09-09T15:16:52.337Z,45.70
2022-09-09T15:19:19.056Z,47.80
2022-09-09T15:21:45.786Z,51.60
2022-09-09T15:24:14.571Z,55.50
2022-09-09T15:26:41.350Z,57.80
2022-09-09T15:29:09.034Z,58.20
2022-09-09T15:31:36.199Z,61.20
2022-09-09T15:34:06.008Z,61.90
2022-09-09T15:36:35.176Z,63.70
2022-09-09T15:39:03.807Z,64.90
2022-09-09T15:41:32.602Z,64.10
2022-09-09T15:44:00.136Z,65.30
2022-09-09T15:46:29.647Z,65.50
2022-09-09T15:48:58.795Z,65.30
2022-09-09T15:51:43.612Z,65.20
2022-09-09T15:54:13.515Z,64.80
2022-09-09T15:56:40.892Z,65.90
2022-09-09T15:59:07.790Z,65.60
2022-09-09T16:01:36.585Z,65.80
2022-09-09T16:04:03.516Z,65.60
2022-09-09T16:06:30.638Z,66.20
2022-09-09T16:08:59.284Z,66.10
2022-09-09T16:11:34.531Z,66.40
2022-09-09T16:14:01.366Z,66.20
2022-09-09T16:16:30.384Z,67.60
2022-09-09T16:19:03.850Z,66.90
2022-09-09T16:21:36.011Z,67.20
2022-09-09T16:24:04.413Z,67.70
2022-09-09T16:26:33.773Z,67.60
2022-09-09T16:29:02.205Z,67.40
2022-09-09T16:31:30.691Z,68.30
2022-09-09T16:33:57.672Z,68.50
2022-09-09T16:36:26.689Z,68.70
2022-09-09T16:38:55.938Z,69.00
2022-09-09T16:41:23.051Z,69.20
2022-09-09T16:43:54.864Z,69.60
2022-09-09T16:46:22.899Z,70.50
2022-09-09T16:48:50.242Z,70.50
2022-09-09T16:51:26.042Z,70.70
2022-09-09T16:53:54.344Z,70.90
2022-09-09T16:56:24.050Z,71.70
2022-09-09T16:58:58.989Z,72.00
2022-09-09T17:01:32.436Z,72.20
2022-09-09T17:04:04.368Z,73.00
2022-09-09T17:06:35.452Z,73.10
2022-09-09T17:09:05.042Z,74.10
2022-09-09T17:11:31.854Z,68.90
2022-09-09T17:13:59.300Z,69.50
2022-09-09T17:16:31.533Z,72.00
2022-09-09T17:18:59.573Z,77.90
2022-09-09T17:21:28.000Z,83.20
2022-09-09T17:23:57.189Z,83.20
2022-09-09T17:26:29.744Z,87.50
2022-09-09T17:28:59.823Z,91.30
2022-09-09T17:31:29.421Z,90.70
2022-09-09T17:33:56.913Z,89.40
2022-09-09T17:36:26.800Z,91.70
2022-09-09T17:38:53.858Z,93.10
2022-09-09T17:41:33.339Z,92.80
2022-09-09T17:44:00.676Z,91.40
2022-09-09T17:46:27.531Z,90.80
2022-09-09T17:48:58.198Z,90.20
2022-09-09T17:51:28.291Z,92.50
2022-09-09T17:53:56.805Z,92.70
2022-09-09T17:56:24.555Z,92.60
2022-09-09T17:58:52.003Z,91.40
2022-09-09T18:01:21.890Z,90.60
2022-09-09T18:03:49.955Z,91.30
2022-09-09T18:06:20.708Z,90.70
2022-09-09T18:08:52.719Z,90.80
2022-09-09T18:11:22.409Z,90.30
2022-09-09T18:13:55.572Z,90.60
2022-09-09T18:16:24.736Z,90.30
2022-09-09T18:18:52.600Z,89.30
2022-09-09T18:21:20.213Z,89.00
2022-09-09T18:23:52.223Z,89.70
2022-09-09T18:26:24.492Z,90.30
2022-09-09T18:28:54.032Z,90.40
2022-09-09T18:31:25.130Z,89.50
2022-09-09T18:33:53.498Z,90.00
2022-09-09T18:36:23.454Z,89.90
2022-09-09T18:38:51.086Z,90.60
2022-09-09T18:41:22.080Z,89.80
2022-09-09T18:43:50.950Z,90.80
2022-09-09T18:46:18.994Z,91.30
2022-09-09T18:48:47.262Z,90.60
2022-09-09T18:51:16.286Z,90.60
2022-09-09T18:53:43.033Z,90.60
2022-09-09T18:56:13.387Z,89.70
2022-09-09T18:58:40.589Z,90.40
2022-09-09T19:01:15.180Z,90.60
2022-09-09T19:03:42.063Z,90.00
2022-09-09T19:06:15.643Z,90.00
2022-09-09T19:08:44.717Z,90.30
2022-09-09T19:11:16.141Z,90.10
2022-09-09T19:13:43.718Z,89.90
2022-09-09T19:16:13.385Z,90.90
2022-09-09T19:18:41.552Z,90.70
2022-09-09T19:21:18.527Z,90.90
2022-09-09T19:23:56.466Z,91.40
2022-09-09T19:26:23.451Z,91.70
2022-09-09T19:28:51.686Z,90.90
2022-09-09T19:31:20.242Z,91.70
2022-09-09T19:33:47.953Z,90.80
2022-09-09T19:36:18.167Z,91.20
2022-09-09T19:38:47.545Z,91.40
2022-09-09T19:41:21.367Z,91.60
2022-09-09T19:43:48.330Z,92.00
2022-09-09T19:46:18.215Z,92.70
2022-09-09T19:48:46.681Z,91.30
2022-09-09T19:51:20.261Z,91.30
2022-09-09T19:53:51.206Z,91.10
2022-09-09T19:56:19.950Z,91.10
2022-09-09T19:58:48.303Z,91.00
2022-09-09T20:01:21.250Z,90.80
2022-09-09T20:03:51.317Z,91.50
2022-09-09T20:06:24.138Z,91.40
2022-09-09T20:08:51.050Z,91.40
2022-09-09T20:11:20.333Z,91.40
2022-09-09T20:13:48.968Z,91.60
2022-09-09T20:16:22.606Z,92.50
2022-09-09T20:18:52.562Z,91.80
2022-09-09T20:21:25.302Z,92.40
2022-09-09T20:23:52.876Z,92.30
2022-09-09T20:26:22.408Z,92.60
2022-09-09T20:28:50.610Z,92.90
2022-09-09T20:31:20.050Z,92.70
2022-09-09T20:33:47.697Z,93.40
2022-09-09T20:36:20.245Z,93.10
2022-09-09T20:38:53.093Z,92.40
2022-09-09T20:41:22.537Z,92.20
2022-09-09T20:43:54.138Z,92.60
2022-09-09T20:46:23.268Z,93.00
2022-09-09T20:48:51.349Z,91.80
2022-09-09T20:51:19.688Z,92.00
2022-09-09T20:53:47.432Z,92.70
2022-09-09T20:56:16.897Z,92.90
2022-09-09T20:58:43.846Z,92.80
2022-09-09T21:01:15.977Z,92.70
2022-09-09T21:03:42.794Z,93.10
2022-09-09T21:06:09.579Z,92.90
2022-09-09T21:08:36.807Z,92.60
2022-09-09T21:11:05.171Z,92.90
2022-09-09T21:13:34.039Z,92.80
2022-09-09T21:16:01.032Z,92.60
2022-09-09T21:18:29.187Z,93.30
2022-09-09T21:20:56.454Z,93.00
2022-09-09T21:23:24.170Z,93.00
2022-09-09T21:25:51.869Z,92.90
2022-09-09T21:28:18.580Z,93.00
2022-09-09T21:30:49.317Z,92.80
2022-09-09T21:33:17.678Z,92.80
2022-09-09T21:35:45.080Z,93.20
2022-09-09T21:38:17.841Z,93.20
2022-09-09T21:40:44.879Z,93.00
2022-09-09T21:43:14.092Z,93.50
2022-09-09T21:45:42.297Z,93.80
2022-09-09T21:48:12.963Z,94.20
2022-09-09T21:50:41.951Z,94.40
2022-09-09T21:53:10.083Z,93.60
2022-09-09T21:55:41.888Z,93.30
2022-09-09T21:58:11.833Z,93.70
2022-09-09T22:00:46.556Z,94.00
2022-09-09T22:03:15.493Z,94.10
2022-09-09T22:05:44.115Z,93.80
2022-09-09T22:08:13.918Z,93.40
2022-09-09T22:10:45.693Z,93.80
2022-09-09T22:13:16.310Z,93.90
2022-09-09T22:15:45.488Z,93.80
2022-09-09T22:18:14.049Z,93.10
2022-09-09T22:20:44.080Z,93.00
2022-09-09T22:23:12.441Z,93.70
2022-09-09T22:25:40.349Z,93.70
2022-09-09T22:28:09.142Z,93.30
2022-09-09T22:30:35.873Z,93.80
2022-09-09T22:33:02.640Z,93.70
2022-09-09T22:35:29.575Z,93.10
2022-09-09T22:37:57.156Z,93.90
2022-09-09T22:40:23.940Z,93.80
2022-09-09T22:42:52.884Z,94.00
2022-09-09T22:45:20.832Z,93.60
2022-09-09T22:47:47.739Z,93.70
2022-09-09T22:50:14.536Z,93.70
2022-09-09T22:52:41.315Z,93.90
2022-09-09T22:55:09.238Z,94.20
2022-09-09T22:57:37.281Z,94.00
2022-09-09T23:00:09.132Z,93.80
2022-09-09T23:02:40.803Z,93.50
2022-09-09T23:05:11.282Z,94.00
2022-09-09T23:07:38.207Z,94.10
2022-09-09T23:10:05.954Z,93.60
2022-09-09T23:12:34.015Z,93.80
2022-09-09T23:15:00.924Z,93.80
2022-09-09T23:17:27.833Z,94.00
2022-09-09T23:19:56.648Z,93.70
2022-09-09T23:22:24.262Z,93.80
2022-09-09T23:24:52.729Z,93.80
2022-09-09T23:27:21.249Z,94.00
2022-09-09T23:29:48.719Z,93.40
2022-09-09T23:32:15.806Z,93.90
2022-09-09T23:34:42.625Z,94.00
2022-09-09T23:37:11.175Z,93.80
2022-09-09T23:39:40.270Z,94.20
2022-09-09T23:42:08.034Z,94.00
2022-09-09T23:44:36.618Z,93.80
2022-09-09T23:47:05.583Z,93.60
2022-09-09T23:49:34.116Z,93.80
2022-09-09T23:52:05.245Z,94.00
2022-09-09T23:54:33.109Z,94.60
2022-09-09T23:57:02.292Z,94.20
2022-09-09T23:59:30.387Z,94.40
